createdAt,value
2022-12-01T00:01:55.036Z,99297.38
2022-12-01T00:04:25.827Z,99279.22
2022-12-01T00:06:52.833Z,99283.22
2022-12-01T00:09:38.325Z,99288.84
2022-12-01T00:12:07.491Z,99289.53
2022-12-01T00:14:34.844Z,99284.00
2022-12-01T00:17:01.738Z,99278.78
2022-12-01T00:19:29.000Z,99270.25
2022-12-01T00:21:57.650Z,99278.19
2022-12-01T00:24:25.661Z,99270.75
2022-12-01T00:26:57.492Z,99275.47
2022-12-01T00:29:27.391Z,99289.09
2022-12-01T00:31:56.298Z,99280.81
2022-12-01T00:34:25.598Z,99276.72
2022-12-01T00:36:52.915Z,99276.81
2022-12-01T00:39:20.728Z,99271.59
2022-12-01T00:41:48.004Z,99272.81
2022-12-01T00:44:15.067Z,99276.59
2022-12-01T00:46:42.080Z,99270.69
2022-12-01T00:49:13.434Z,99276.06
2022-12-01T00:51:45.964Z,99277.78
2022-12-01T00:54:13.392Z,99276.44
2022-12-01T00:56:40.391Z,99286.81
2022-12-01T00:59:07.571Z,99282.03
2022-12-01T01:01:35.417Z,99286.84
2022-12-01T01:04:08.323Z,99285.50
2022-12-01T01:06:35.494Z,99281.34
2022-12-01T01:09:02.714Z,99279.22
2022-12-01T01:11:55.281Z,99280.91
2022-12-01T01:14:40.692Z,99274.53
2022-12-01T01:17:13.094Z,99279.47
2022-12-01T01:19:40.234Z,99283.03
2022-12-01T01:22:07.399Z,99273.84
2022-12-01T01:24:34.607Z,99275.84
2022-12-01T01:27:01.766Z,99283.84
2022-12-01T01:29:31.983Z,99300.66
2022-12-01T01:31:59.331Z,99290.28
2022-12-01T01:34:26.393Z,99295.13
2022-12-01T01:36:55.850Z,99290.56
2022-12-01T01:39:27.806Z,99286.09
2022-12-01T01:41:58.608Z,99286.06
2022-12-01T01:44:52.307Z,99283.59
2022-12-01T01:47:40.648Z,99281.09
2022-12-01T01:50:25.838Z,99285.88
2022-12-01T01:52:59.776Z,99291.03
2022-12-01T01:55:35.698Z,99280.69
2022-12-01T01:58:11.371Z,99280.06
2022-12-01T02:00:43.054Z,99273.72
2022-12-01T02:03:13.642Z,99277.22
2022-12-01T02:05:42.355Z,99273.19
2022-12-01T02:08:13.890Z,99280.19
2022-12-01T02:10:55.488Z,99277.00
2022-12-01T02:13:36.301Z,99269.91
2022-12-01T02:16:36.682Z,99269.25
2022-12-01T02:19:37.557Z,99273.25
2022-12-01T02:22:15.069Z,99266.66
2022-12-01T02:24:51.191Z,99272.28
2022-12-01T02:27:46.822Z,99274.22
2022-12-01T02:30:36.479Z,99278.72
2022-12-01T02:33:18.010Z,99281.44
2022-12-01T02:35:57.061Z,99282.75
2022-12-01T02:38:29.897Z,99286.88
2022-12-01T02:41:00.955Z,99286.72
2022-12-01T02:43:36.476Z,99286.09
2022-12-01T02:46:12.067Z,99292.69
2022-12-01T02:48:43.037Z,99294.53
2022-12-01T02:51:14.861Z,99294.59
2022-12-01T02:53:41.987Z,99298.44
2022-12-01T02:56:12.244Z,99296.97
2022-12-01T02:58:39.248Z,99301.81
2022-12-01T03:01:33.608Z,99295.50
2022-12-01T03:04:38.920Z,99298.59
2022-12-01T03:07:19.353Z,99296.34
2022-12-01T03:10:24.680Z,99284.38
2022-12-01T03:13:20.636Z,99287.63
2022-12-01T03:16:15.639Z,99291.81
2022-12-01T03:18:48.969Z,99287.09
2022-12-01T03:21:40.978Z,99291.72
2022-12-01T03:24:13.287Z,99296.88
2022-12-01T03:26:43.144Z,99287.72
2022-12-01T03:29:25.469Z,99290.69
2022-12-01T03:31:56.270Z,99288.84
2022-12-01T03:34:46.472Z,99289.69
2022-12-01T03:37:32.485Z,99285.00
2022-12-01T03:40:02.055Z,99297.47
2022-12-01T03:43:07.693Z,99290.59
2022-12-01T03:45:44.835Z,99296.66
2022-12-01T03:48:11.778Z,99286.72
2022-12-01T03:51:05.294Z,99287.59
2022-12-01T03:54:06.011Z,99287.72
2022-12-01T03:56:38.129Z,99286.66
2022-12-01T03:59:08.826Z,99287.59
2022-12-01T04:01:36.454Z,99281.13
2022-12-01T04:04:04.633Z,99287.81
2022-12-01T04:06:31.712Z,99284.47
2022-12-01T04:08:58.428Z,99283.78
2022-12-01T04:11:44.145Z,99280.75
2022-12-01T04:14:11.098Z,99286.59
2022-12-01T04:16:38.061Z,99285.75
2022-12-01T04:19:07.173Z,99289.53
2022-12-01T04:21:34.011Z,99295.19
2022-12-01T04:24:01.026Z,99304.75
2022-12-01T04:26:34.632Z,99309.94
2022-12-01T04:29:08.433Z,99307.47
2022-12-01T04:31:36.246Z,99308.22
2022-12-01T04:34:03.343Z,99308.44
2022-12-01T04:36:32.266Z,99302.69
2022-12-01T04:38:59.545Z,99305.34
2022-12-01T04:41:26.685Z,99316.41
2022-12-01T04:43:54.955Z,99304.91
2022-12-01T04:46:22.784Z,99300.81
2022-12-01T04:48:50.574Z,99299.53
2022-12-01T04:51:17.528Z,99298.44
2022-12-01T04:53:44.409Z,99299.44
2022-12-01T04:56:11.329Z,99307.56
2022-12-01T04:58:38.513Z,99308.38
2022-12-01T05:01:10.560Z,99302.56
2022-12-01T05:03:39.718Z,99306.84
2022-12-01T05:06:10.142Z,99311.69
2022-12-01T05:08:40.778Z,99311.41
2022-12-01T05:11:12.375Z,99314.13
2022-12-01T05:13:41.173Z,99305.44
2022-12-01T05:16:11.599Z,99303.97
2022-12-01T05:18:38.947Z,99298.44
2022-12-01T05:21:10.981Z,99302.03
2022-12-01T05:23:39.343Z,99304.06
2022-12-01T05:26:10.930Z,99304.53
2022-12-01T05:28:38.943Z,99303.75
2022-12-01T05:31:05.876Z,99310.44
2022-12-01T05:33:32.795Z,99305.72
2022-12-01T05:35:59.510Z,99308.97
2022-12-01T05:38:26.455Z,99312.84
2022-12-01T05:40:55.486Z,99310.81
2022-12-01T05:43:28.758Z,99313.31
2022-12-01T05:45:57.324Z,99316.84
2022-12-01T05:48:25.282Z,99317.16
2022-12-01T05:51:25.002Z,99319.28
2022-12-01T06:00:15.112Z,99326.81
2022-12-01T06:02:42.319Z,99321.25
2022-12-01T06:05:09.348Z,99322.38
2022-12-01T06:07:35.894Z,99321.13
2022-12-01T06:10:03.484Z,99325.31
2022-12-01T06:12:29.990Z,99324.94
2022-12-01T06:14:56.546Z,99332.91
2022-12-01T06:17:23.016Z,99330.41
2022-12-01T06:19:49.777Z,99332.03
2022-12-01T06:22:16.416Z,99340.84
2022-12-01T06:24:42.925Z,99337.81
2022-12-01T06:27:09.325Z,99340.00
2022-12-01T06:29:40.564Z,99341.06
2022-12-01T06:32:08.480Z,99336.16
2022-12-01T06:34:34.938Z,99345.59
2022-12-01T06:37:01.478Z,99345.22
2022-12-01T06:39:27.995Z,99348.69
2022-12-01T06:41:54.452Z,99344.16
2022-12-01T06:44:20.956Z,99348.97
2022-12-01T06:46:47.565Z,99340.84
2022-12-01T06:49:14.105Z,99342.56
2022-12-01T06:51:40.635Z,99337.72
2022-12-01T06:54:07.749Z,99339.69
2022-12-01T06:56:34.210Z,99341.00
2022-12-01T06:59:01.095Z,99342.78
2022-12-01T07:01:28.422Z,99350.22
2022-12-01T07:03:55.128Z,99349.03
2022-12-01T07:06:21.860Z,99354.78
2022-12-01T07:08:48.383Z,99358.75
2022-12-01T07:11:16.330Z,99353.25
2022-12-01T07:13:47.085Z,99361.84
2022-12-01T07:16:13.667Z,99360.72
2022-12-01T07:18:40.633Z,99367.84
2022-12-01T07:21:12.968Z,99372.97
2022-12-01T07:23:40.077Z,99368.06
2022-12-01T07:26:10.041Z,99371.94
2022-12-01T07:28:36.626Z,99373.22
2022-12-01T07:31:10.638Z,99375.78
2022-12-01T07:33:37.380Z,99375.78
2022-12-01T07:36:05.006Z,99377.47
2022-12-01T07:38:31.892Z,99375.03
2022-12-01T07:41:06.335Z,99376.78
2022-12-01T07:43:33.648Z,99374.66
2022-12-01T07:46:23.840Z,99376.94
2022-12-01T07:48:51.645Z,99373.47
2022-12-01T07:51:18.280Z,99377.53
2022-12-01T07:53:46.300Z,99373.22
2022-12-01T07:56:13.544Z,99376.19
2022-12-01T07:58:40.792Z,99380.94
2022-12-01T08:01:12.863Z,99384.59
2022-12-01T08:03:40.282Z,99382.75
2022-12-01T08:06:07.579Z,99384.97
2022-12-01T08:08:35.774Z,99381.22
2022-12-01T08:11:07.632Z,99372.13
2022-12-01T08:13:34.520Z,99374.59
2022-12-01T08:16:05.270Z,99384.22
2022-12-01T08:18:34.911Z,99386.34
2022-12-01T08:21:01.737Z,99380.78
2022-12-01T08:23:28.240Z,99386.59
2022-12-01T08:25:54.818Z,99381.69
2022-12-01T08:28:21.527Z,99388.59
2022-12-01T08:30:48.161Z,99393.97
2022-12-01T08:33:14.810Z,99383.34
2022-12-01T08:35:41.382Z,99386.88
2022-12-01T08:38:08.850Z,99389.63
2022-12-01T08:40:35.339Z,99384.63
2022-12-01T08:43:01.868Z,99383.97
2022-12-01T08:45:28.476Z,99386.22
2022-12-01T08:47:58.924Z,99388.09
2022-12-01T08:50:27.446Z,99396.09
2022-12-01T08:52:54.030Z,99403.50
2022-12-01T08:55:21.934Z,99395.31
2022-12-01T08:57:48.524Z,99401.38
2022-12-01T09:00:16.301Z,99399.94
2022-12-01T09:02:42.906Z,99393.69
2022-12-01T09:05:09.729Z,99395.78
2022-12-01T09:07:36.229Z,99405.19
2022-12-01T09:10:02.681Z,99407.69
2022-12-01T09:12:29.649Z,99403.28
2022-12-01T09:14:56.043Z,99395.03
2022-12-01T09:17:23.621Z,99396.56
2022-12-01T09:19:50.502Z,99395.38
2022-12-01T09:22:17.161Z,99395.91
2022-12-01T09:24:43.646Z,99401.41
2022-12-01T09:27:10.189Z,99396.97
2022-12-01T09:29:36.763Z,99397.97
2022-12-01T09:32:03.473Z,99401.75
2022-12-01T09:34:30.148Z,99393.09
2022-12-01T09:36:58.279Z,99402.44
2022-12-01T09:39:25.145Z,99400.38
2022-12-01T09:41:57.657Z,99395.97
2022-12-01T09:44:36.521Z,99389.22
2022-12-01T09:47:23.955Z,99390.03
2022-12-01T09:50:12.389Z,99389.66
2022-12-01T09:52:47.188Z,99383.44
2022-12-01T09:55:16.360Z,99393.66
2022-12-01T09:57:44.303Z,99379.81
2022-12-01T10:00:18.371Z,99388.41
2022-12-01T10:03:12.524Z,99386.72
2022-12-01T10:06:10.279Z,99383.50
2022-12-01T10:08:37.020Z,99385.22
2022-12-01T10:11:36.784Z,99383.63
2022-12-01T10:14:06.218Z,99377.19
2022-12-01T10:16:43.742Z,99379.06
2022-12-01T10:19:17.779Z,99379.47
2022-12-01T10:22:05.928Z,99374.22
2022-12-01T10:24:59.976Z,99372.31
2022-12-01T10:27:35.574Z,99375.59
2022-12-01T10:30:08.849Z,99372.88
2022-12-01T10:33:16.855Z,99370.66
2022-12-01T10:35:43.332Z,99367.41
2022-12-01T10:38:22.204Z,99363.47
2022-12-01T10:40:50.843Z,99365.94
2022-12-01T10:43:17.330Z,99365.16
2022-12-01T10:45:45.614Z,99359.53
2022-12-01T10:48:23.057Z,99362.28
2022-12-01T10:50:55.012Z,99362.78
2022-12-01T10:53:25.264Z,99357.72
2022-12-01T10:56:00.572Z,99362.25
2022-12-01T10:58:27.127Z,99358.94
2022-12-01T11:01:01.226Z,99359.53
2022-12-01T11:03:31.902Z,99357.66
2022-12-01T11:06:00.947Z,99353.66
2022-12-01T11:08:33.583Z,99350.91
2022-12-01T11:11:00.121Z,99360.81
2022-12-01T11:13:29.089Z,99364.09
2022-12-01T11:16:01.233Z,99359.78
2022-12-01T11:18:27.839Z,99355.00
2022-12-01T11:21:25.719Z,99362.41
2022-12-01T11:23:54.600Z,99358.31
2022-12-01T11:26:25.407Z,99349.66
2022-12-01T11:28:56.173Z,99351.81
2022-12-01T11:31:35.719Z,99353.09
2022-12-01T11:34:02.575Z,99350.38
2022-12-01T11:36:37.981Z,99342.34
2022-12-01T11:39:04.824Z,99340.47
2022-12-01T11:41:39.404Z,99342.59
2022-12-01T11:44:43.304Z,99347.94
2022-12-01T11:47:25.002Z,99333.94
2022-12-01T11:50:00.858Z,99327.09
2022-12-01T11:52:36.653Z,99335.44
2022-12-01T11:55:24.476Z,99323.63
2022-12-01T11:57:54.145Z,99326.53
2022-12-01T12:00:27.956Z,99334.44
2022-12-01T12:03:08.546Z,99325.59
2022-12-01T12:06:11.699Z,99323.44
2022-12-01T12:09:10.789Z,99328.81
2022-12-01T12:11:53.179Z,99323.00
2022-12-01T12:14:34.156Z,99331.25
2022-12-01T12:17:38.220Z,99319.75
2022-12-01T12:20:08.994Z,99313.31
2022-12-01T12:23:13.261Z,99317.78
2022-12-01T12:26:15.303Z,99312.66
2022-12-01T12:29:01.568Z,99311.53
2022-12-01T12:31:45.984Z,99304.56
2022-12-01T12:34:27.630Z,99311.09
2022-12-01T12:37:26.315Z,99307.88
2022-12-01T12:40:31.826Z,99307.69
2022-12-01T12:43:22.513Z,99313.94
2022-12-01T12:46:05.720Z,99311.88
2022-12-01T12:49:21.386Z,99310.63
2022-12-01T12:51:54.346Z,99310.66
2022-12-01T12:54:20.903Z,99306.88
2022-12-01T12:56:51.799Z,99310.78
2022-12-01T12:59:36.321Z,99313.63
2022-12-01T13:02:18.724Z,99310.66
2022-12-01T13:04:58.302Z,99315.31
2022-12-01T13:07:49.761Z,99306.50
2022-12-01T13:10:37.175Z,99316.34
2022-12-01T13:13:12.183Z,99312.78
2022-12-01T13:15:40.223Z,99310.66
2022-12-01T13:18:19.865Z,99312.13
2022-12-01T13:20:47.467Z,99311.41
2022-12-01T13:23:16.052Z,99309.44
2022-12-01T13:25:44.353Z,99309.56
2022-12-01T13:28:20.407Z,99308.63
2022-12-01T13:31:02.920Z,99316.66
2022-12-01T13:33:31.241Z,99304.56
2022-12-01T13:36:29.830Z,99311.06
2022-12-01T13:39:00.530Z,99307.97
2022-12-01T13:41:33.980Z,99311.44
2022-12-01T13:44:04.500Z,99305.78
2022-12-01T13:46:37.016Z,99310.94
2022-12-01T13:49:04.591Z,99314.44
2022-12-01T13:52:13.599Z,99317.56
2022-12-01T13:55:02.052Z,99312.78
2022-12-01T13:57:31.763Z,99305.00
2022-12-01T13:59:58.273Z,99307.06
2022-12-01T14:02:27.263Z,99306.72
2022-12-01T14:04:54.433Z,99300.66
2022-12-01T14:07:32.053Z,99299.13
2022-12-01T14:10:37.759Z,99290.19
2022-12-01T14:13:06.495Z,99294.34
2022-12-01T14:15:42.856Z,99295.19
2022-12-01T14:18:18.687Z,99303.44
2022-12-01T14:20:47.637Z,99301.91
2022-12-01T14:23:24.756Z,99299.84
2022-12-01T14:26:12.709Z,99301.53
2022-12-01T14:29:01.094Z,99299.78
2022-12-01T14:31:33.823Z,99303.09
2022-12-01T14:34:19.294Z,99302.91
2022-12-01T14:37:07.652Z,99295.34
2022-12-01T14:39:36.952Z,99298.72
2022-12-01T14:42:48.629Z,99298.44
2022-12-01T14:45:20.499Z,99305.94
2022-12-01T14:47:55.867Z,99300.19
2022-12-01T14:50:33.318Z,99302.97
2022-12-01T14:53:18.435Z,99295.06
2022-12-01T14:55:56.578Z,99290.81
2022-12-01T14:58:31.594Z,99286.88
2022-12-01T15:01:08.768Z,99288.19
2022-12-01T15:03:39.519Z,99286.59
2022-12-01T15:06:07.405Z,99289.84
2022-12-01T15:08:53.308Z,99287.81
2022-12-01T15:11:25.620Z,99281.34
2022-12-01T15:13:54.731Z,99284.31
2022-12-01T15:16:28.288Z,99276.22
2022-12-01T15:18:55.022Z,99270.13
2022-12-01T15:21:25.518Z,99268.34
2022-12-01T15:24:19.712Z,99270.47
2022-12-01T15:26:48.746Z,99273.34
2022-12-01T15:29:31.915Z,99275.53
2022-12-01T15:32:06.013Z,99271.22
2022-12-01T15:34:39.761Z,99270.84
2022-12-01T15:37:11.764Z,99271.25
2022-12-01T15:40:11.899Z,99271.19
2022-12-01T15:42:43.767Z,99273.56
2022-12-01T15:45:22.047Z,99277.97
2022-12-01T15:47:50.766Z,99285.97
2022-12-01T15:50:37.668Z,99269.38
2022-12-01T15:53:21.809Z,99276.94
2022-12-01T15:55:54.113Z,99274.31
2022-12-01T15:58:27.210Z,99266.13
2022-12-01T16:01:06.325Z,99281.00
2022-12-01T16:03:45.541Z,99275.97
2022-12-01T16:06:12.800Z,99283.91
2022-12-01T16:08:39.901Z,99280.19
2022-12-01T16:11:13.947Z,99282.81
2022-12-01T16:13:55.417Z,99279.28
2022-12-01T16:16:38.346Z,99277.56
2022-12-01T16:19:07.740Z,99273.53
2022-12-01T16:21:52.978Z,99284.03
2022-12-01T16:24:19.465Z,99282.13
2022-12-01T16:26:48.838Z,99275.78
2022-12-01T16:29:24.141Z,99279.41
2022-12-01T16:32:13.047Z,99278.28
2022-12-01T16:34:46.282Z,99277.25
2022-12-01T16:37:14.326Z,99284.00
2022-12-01T16:39:40.967Z,99281.66
2022-12-01T16:42:11.956Z,99281.53
2022-12-01T16:44:38.521Z,99277.94
2022-12-01T16:47:12.941Z,99282.88
2022-12-01T16:49:39.516Z,99281.63
2022-12-01T16:52:22.105Z,99285.72
2022-12-01T16:54:52.583Z,99282.25
2022-12-01T16:57:19.248Z,99281.66
2022-12-01T16:59:45.818Z,99288.34
2022-12-01T17:02:12.397Z,99277.69
2022-12-01T17:04:39.032Z,99284.00
2022-12-01T17:07:05.566Z,99281.00
2022-12-01T17:09:32.299Z,99279.22
2022-12-01T17:11:59.288Z,99282.69
2022-12-01T17:14:25.881Z,99277.28
2022-12-01T17:16:52.362Z,99276.19
2022-12-01T17:19:19.219Z,99273.47
2022-12-01T17:21:45.728Z,99275.78
2022-12-01T17:24:16.156Z,99276.94
2022-12-01T17:26:45.288Z,99282.88
2022-12-01T17:29:11.908Z,99280.16
2022-12-01T17:31:38.469Z,99271.47
2022-12-01T17:34:05.140Z,99279.81
2022-12-01T17:36:31.640Z,99274.34
2022-12-01T17:38:58.814Z,99265.84
2022-12-01T17:41:32.215Z,99273.34
2022-12-01T17:43:58.888Z,99278.13
2022-12-01T17:46:25.758Z,99286.13
2022-12-01T17:48:52.364Z,99275.84
2022-12-01T17:51:19.092Z,99281.97
2022-12-01T17:53:45.702Z,99282.94
2022-12-01T17:56:14.416Z,99288.69
2022-12-01T17:58:41.272Z,99287.66
2022-12-01T18:01:17.524Z,99284.63
2022-12-01T18:03:44.593Z,99293.63
2022-12-01T18:06:11.894Z,99293.34
2022-12-01T18:08:39.712Z,99289.63
2022-12-01T18:11:08.024Z,99281.19
2022-12-01T18:13:39.311Z,99284.97
2022-12-01T18:16:10.391Z,99292.38
2022-12-01T18:18:40.050Z,99298.47
2022-12-01T18:21:08.261Z,99292.31
2022-12-01T18:23:35.322Z,99291.81
2022-12-01T18:26:15.417Z,99289.03
2022-12-01T18:28:43.185Z,99288.13
2022-12-01T18:31:12.943Z,99291.78
2022-12-01T18:33:42.321Z,99298.56
2022-12-01T18:36:18.592Z,99284.66
2022-12-01T18:38:47.222Z,99283.06
2022-12-01T18:41:14.491Z,99289.16
2022-12-01T18:43:41.371Z,99295.31
2022-12-01T18:46:08.183Z,99281.81
2022-12-01T18:48:35.240Z,99287.25
2022-12-01T18:51:03.833Z,99282.16
2022-12-01T18:53:30.593Z,99278.91
2022-12-01T18:55:57.105Z,99275.91
2022-12-01T18:58:23.448Z,99279.50
2022-12-01T19:00:51.374Z,99272.75
2022-12-01T19:03:17.960Z,99266.25
2022-12-01T19:05:49.922Z,99272.16
2022-12-01T19:08:16.424Z,99277.88
2022-12-01T19:10:42.819Z,99268.84
2022-12-01T19:13:09.325Z,99269.09
2022-12-01T19:15:38.704Z,99265.91
2022-12-01T19:18:05.181Z,99262.09
2022-12-01T19:20:31.611Z,99266.88
2022-12-01T19:22:58.133Z,99273.00
2022-12-01T19:25:24.510Z,99263.72
2022-12-01T19:27:53.082Z,99260.38
2022-12-01T19:30:19.612Z,99262.09
2022-12-01T19:32:46.074Z,99265.41
2022-12-01T19:35:12.547Z,99256.91
2022-12-01T19:37:39.127Z,99269.00
2022-12-01T19:40:06.297Z,99265.59
2022-12-01T19:42:32.833Z,99267.25
2022-12-01T19:44:59.665Z,99259.38
2022-12-01T19:47:26.207Z,99263.09
2022-12-01T19:49:52.695Z,99258.22
2022-12-01T19:52:20.467Z,99268.53
2022-12-01T19:54:46.960Z,99260.50
2022-12-01T19:57:13.508Z,99261.97
2022-12-01T19:59:40.137Z,99263.34
2022-12-01T20:02:06.866Z,99259.13
2022-12-01T20:04:33.560Z,99262.03
2022-12-01T20:07:00.196Z,99264.06
2022-12-01T20:09:27.379Z,99263.53
2022-12-01T20:11:53.938Z,99264.97
2022-12-01T20:14:20.722Z,99262.78
2022-12-01T20:16:47.391Z,99265.22
2022-12-01T20:19:14.036Z,99267.22
2022-12-01T20:21:43.236Z,99263.47
2022-12-01T20:24:20.032Z,99267.25
2022-12-01T20:26:50.881Z,99262.47
2022-12-01T20:29:21.857Z,99260.88
2022-12-01T20:31:50.403Z,99262.03
2022-12-01T20:34:25.507Z,99264.06
2022-12-01T20:36:53.017Z,99252.88
2022-12-01T20:39:20.183Z,99253.22
2022-12-01T20:41:46.704Z,99248.72
2022-12-01T20:44:14.257Z,99252.81
2022-12-01T20:46:45.746Z,99251.16
2022-12-01T20:49:14.426Z,99252.88
2022-12-01T20:51:40.972Z,99261.84
2022-12-01T20:54:28.320Z,99255.28
2022-12-01T20:56:56.107Z,99254.97
2022-12-01T20:59:22.699Z,99252.03
2022-12-01T21:01:49.224Z,99239.09
2022-12-01T21:04:15.919Z,99241.53
2022-12-01T21:06:42.582Z,99245.88
2022-12-01T21:09:09.207Z,99247.03
2022-12-01T21:12:03.800Z,99241.91
2022-12-01T21:14:37.567Z,99235.28
2022-12-01T21:17:16.894Z,99228.34
2022-12-01T21:19:53.686Z,99228.38
2022-12-01T21:22:20.237Z,99235.38
2022-12-01T21:24:50.457Z,99229.31
2022-12-01T21:27:18.157Z,99245.28
2022-12-01T21:29:47.751Z,99230.50
2022-12-01T21:32:17.691Z,99236.84
2022-12-01T21:34:46.870Z,99237.34
2022-12-01T21:37:24.835Z,99232.69
2022-12-01T21:39:53.197Z,99231.38
2022-12-01T21:42:22.370Z,99231.28
2022-12-01T21:44:51.204Z,99245.19
2022-12-01T21:47:23.610Z,99240.72
2022-12-01T21:49:55.960Z,99238.66
2022-12-01T21:52:33.241Z,99237.97
2022-12-01T21:55:22.747Z,99240.59
2022-12-01T21:57:51.391Z,99233.19
2022-12-01T22:00:23.621Z,99236.03
2022-12-01T22:02:52.246Z,99229.09
2022-12-01T22:05:37.672Z,99227.69
2022-12-01T22:08:13.305Z,99234.25
2022-12-01T22:10:55.679Z,99232.22
2022-12-01T22:13:48.251Z,99225.72
2022-12-01T22:16:40.857Z,99223.19
2022-12-01T22:19:16.612Z,99222.00
2022-12-01T22:21:48.088Z,99220.94
2022-12-01T22:24:21.867Z,99221.88
2022-12-01T22:26:51.993Z,99216.16
2022-12-01T22:29:39.455Z,99222.94
2022-12-01T22:32:11.930Z,99226.47
2022-12-01T22:34:40.169Z,99223.50
2022-12-01T22:37:35.688Z,99217.63
2022-12-01T22:40:02.244Z,99213.13
2022-12-01T22:42:33.732Z,99220.84
2022-12-01T22:45:22.791Z,99219.88
2022-12-01T22:47:49.352Z,99217.19
2022-12-01T22:50:26.965Z,99215.59
2022-12-01T22:52:58.105Z,99214.50
2022-12-01T22:55:24.600Z,99217.44
2022-12-01T22:57:51.164Z,99213.50
2022-12-01T23:00:21.578Z,99206.38
2022-12-01T23:02:49.676Z,99199.19
2022-12-01T23:05:28.382Z,99200.75
2022-12-01T23:07:55.758Z,99196.09
2022-12-01T23:10:25.298Z,99202.19
2022-12-01T23:12:54.735Z,99198.47
2022-12-01T23:15:35.460Z,99195.16
2022-12-01T23:18:13.791Z,99189.97
2022-12-01T23:20:41.355Z,99186.97
2022-12-01T23:23:13.479Z,99186.66
2022-12-01T23:25:42.379Z,99190.44
2022-12-01T23:28:10.586Z,99185.97
2022-12-01T23:30:40.196Z,99195.91
2022-12-01T23:33:14.531Z,99189.38
2022-12-01T23:35:48.019Z,99182.16
2022-12-01T23:38:18.143Z,99187.16
2022-12-01T23:40:45.748Z,99180.84
2022-12-01T23:43:33.208Z,99175.16
2022-12-01T23:46:05.233Z,99176.88
2022-12-01T23:48:39.322Z,99168.06
2022-12-01T23:51:15.807Z,99170.09
2022-12-01T23:53:43.089Z,99163.81
2022-12-01T23:56:16.989Z,99170.91
2022-12-01T23:58:44.498Z,99165.13
